createdAt,value
2019-03-17T00:01:39.569Z,1.90
2019-03-17T00:04:08.846Z,2.30
2019-03-17T00:06:38.041Z,2.60
2019-03-17T00:09:08.203Z,2.10
2019-03-17T00:11:37.623Z,3.23
2019-03-17T00:14:07.038Z,3.03
2019-03-17T00:16:36.395Z,2.90
2019-03-17T00:19:05.709Z,2.80
2019-03-17T00:21:35.393Z,2.70
2019-03-17T00:24:04.646Z,2.77
2019-03-17T00:26:33.848Z,2.77
2019-03-17T00:29:03.186Z,3.03
2019-03-17T00:31:32.507Z,3.40
2019-03-17T00:34:01.741Z,3.63
2019-03-17T00:36:31.373Z,3.03
2019-03-17T00:39:00.582Z,2.60
2019-03-17T00:41:31.641Z,2.57
2019-03-17T00:44:00.806Z,2.40
2019-03-17T00:46:30.078Z,4.50
2019-03-17T00:48:59.309Z,3.43
2019-03-17T00:51:28.665Z,3.10
2019-03-17T00:53:57.944Z,2.33
2019-03-17T00:56:27.335Z,3.03
2019-03-17T00:58:56.609Z,2.83
2019-03-17T01:01:25.957Z,2.50
2019-03-17T01:03:55.239Z,1.90
2019-03-17T01:06:25.101Z,2.00
2019-03-17T01:08:54.361Z,1.73
2019-03-17T01:11:23.966Z,1.60
2019-03-17T01:13:53.250Z,1.90
2019-03-17T01:16:22.522Z,1.97
2019-03-17T01:18:52.166Z,1.50
2019-03-17T01:21:21.382Z,1.90
2019-03-17T01:23:51.061Z,2.70
2019-03-17T01:26:20.362Z,2.53
2019-03-17T01:28:49.554Z,2.63
2019-03-17T01:31:19.186Z,2.00
2019-03-17T01:33:48.436Z,2.53
2019-03-17T01:36:17.804Z,2.10
2019-03-17T01:38:47.166Z,1.87
2019-03-17T01:41:18.329Z,2.50
2019-03-17T01:43:47.955Z,2.27
2019-03-17T01:46:17.447Z,1.87
2019-03-17T01:48:47.276Z,2.00
2019-03-17T01:51:18.315Z,1.87
2019-03-17T01:53:47.981Z,2.37
2019-03-17T01:56:17.314Z,1.53
2019-03-17T01:58:46.647Z,1.57
2019-03-17T02:01:15.994Z,1.80
2019-03-17T02:03:45.722Z,2.00
2019-03-17T02:06:15.010Z,2.10
2019-03-17T02:08:44.949Z,1.87
2019-03-17T02:11:14.142Z,2.67
2019-03-17T02:13:43.431Z,1.80
2019-03-17T02:16:12.753Z,1.60
2019-03-17T02:18:42.359Z,1.97
2019-03-17T02:21:11.596Z,1.57
2019-03-17T02:23:41.189Z,1.50
2019-03-17T02:26:10.659Z,1.63
2019-03-17T02:28:39.869Z,1.50
2019-03-17T02:31:09.379Z,2.00
2019-03-17T02:33:39.397Z,1.63
2019-03-17T02:36:09.041Z,1.50
2019-03-17T02:38:38.241Z,1.70
2019-03-17T02:41:07.627Z,1.60
2019-03-17T02:43:36.818Z,1.67
2019-03-17T02:46:06.245Z,1.40
2019-03-17T02:48:35.546Z,1.57
2019-03-17T02:51:05.120Z,1.50
2019-03-17T02:53:34.606Z,1.60
2019-03-17T02:56:04.201Z,1.50
2019-03-17T02:58:33.497Z,1.20
2019-03-17T03:01:03.252Z,1.40
2019-03-17T03:03:32.517Z,1.20
2019-03-17T03:06:01.738Z,1.33
2019-03-17T03:08:30.905Z,1.30
2019-03-17T03:11:00.178Z,1.50
2019-03-17T03:13:29.343Z,1.60
2019-03-17T03:15:58.541Z,1.40
2019-03-17T03:18:27.845Z,1.27
2019-03-17T03:20:57.299Z,1.30
2019-03-17T03:23:26.845Z,1.67
2019-03-17T03:25:55.979Z,1.40
2019-03-17T03:28:25.697Z,1.50
2019-03-17T03:30:55.149Z,1.50
2019-03-17T03:33:24.381Z,1.57
2019-03-17T03:36:09.409Z,1.37
2019-03-17T03:38:24.525Z,1.40
2019-03-17T03:40:53.894Z,1.20
2019-03-17T03:43:23.417Z,1.30
2019-03-17T03:45:52.606Z,1.03
2019-03-17T03:48:21.745Z,1.63
2019-03-17T03:50:51.004Z,1.30
2019-03-17T03:53:20.545Z,1.17
2019-03-17T03:55:49.886Z,1.50
2019-03-17T03:58:19.080Z,1.40
2019-03-17T04:00:49.029Z,1.50
2019-03-17T04:03:18.193Z,1.30
2019-03-17T04:05:47.359Z,1.50
2019-03-17T04:08:16.517Z,1.30
2019-03-17T04:10:45.766Z,1.40
2019-03-17T04:13:14.951Z,1.77
2019-03-17T04:15:44.326Z,1.20
2019-03-17T04:18:13.626Z,1.23
2019-03-17T04:20:43.094Z,1.40
2019-03-17T04:23:12.404Z,1.30
2019-03-17T04:25:41.999Z,1.67
2019-03-17T04:28:11.486Z,1.70
2019-03-17T04:30:40.768Z,1.40
2019-03-17T04:33:10.115Z,1.60
2019-03-17T04:35:39.379Z,1.60
2019-03-17T04:38:08.818Z,1.53
2019-03-17T04:40:38.255Z,1.67
2019-03-17T04:43:07.429Z,1.60
2019-03-17T04:45:36.602Z,1.47
2019-03-17T04:48:05.925Z,1.63
2019-03-17T04:50:35.423Z,1.40
2019-03-17T04:53:04.610Z,1.40
2019-03-17T04:55:33.774Z,1.50
2019-03-17T04:58:03.426Z,1.50
2019-03-17T05:00:32.939Z,1.60
2019-03-17T05:03:02.193Z,1.50
2019-03-17T05:05:31.398Z,1.90
2019-03-17T05:08:00.590Z,1.50
2019-03-17T05:10:30.138Z,1.57
2019-03-17T05:12:59.305Z,2.37
2019-03-17T05:15:29.026Z,1.20
2019-03-17T05:17:58.214Z,1.37
2019-03-17T05:20:27.464Z,1.27
2019-03-17T05:22:56.770Z,1.50
2019-03-17T05:25:26.005Z,1.30
2019-03-17T05:27:55.314Z,1.27
2019-03-17T05:30:24.448Z,2.60
2019-03-17T05:32:54.197Z,7.57
2019-03-17T05:35:23.334Z,2.87
2019-03-17T05:37:52.495Z,1.40
2019-03-17T05:40:21.629Z,1.93
2019-03-17T05:42:50.822Z,1.60
2019-03-17T05:45:19.966Z,1.30
2019-03-17T05:47:49.204Z,1.50
2019-03-17T05:50:18.442Z,1.27
2019-03-17T05:52:48.106Z,1.40
2019-03-17T05:55:17.424Z,1.20
2019-03-17T05:57:46.782Z,2.10
2019-03-17T06:00:17.069Z,1.50
2019-03-17T06:02:46.352Z,1.43
2019-03-17T06:05:16.323Z,1.83
2019-03-17T06:07:45.498Z,1.60
2019-03-17T06:10:14.778Z,1.47
2019-03-17T06:12:44.110Z,1.87
2019-03-17T06:15:13.316Z,1.80
2019-03-17T06:17:43.791Z,1.67
2019-03-17T06:20:13.380Z,1.50
2019-03-17T06:22:43.027Z,1.83
2019-03-17T06:25:12.446Z,2.00
2019-03-17T06:27:41.675Z,2.00
2019-03-17T06:30:11.336Z,1.80
2019-03-17T06:32:40.481Z,1.50
2019-03-17T06:35:09.948Z,1.93
2019-03-17T06:37:39.455Z,1.57
2019-03-17T06:40:09.186Z,1.40
2019-03-17T06:42:38.330Z,1.60
2019-03-17T06:45:07.985Z,1.20
2019-03-17T06:47:37.244Z,1.50
2019-03-17T06:50:07.948Z,1.33
2019-03-17T06:52:37.403Z,1.43
2019-03-17T06:55:07.669Z,1.43
2019-03-17T06:57:37.133Z,1.67
2019-03-17T07:00:08.225Z,1.37
2019-03-17T07:02:37.436Z,1.40
2019-03-17T07:05:07.089Z,1.43
2019-03-17T07:07:43.709Z,1.70
2019-03-17T07:10:07.252Z,1.53
2019-03-17T07:12:36.563Z,1.40
2019-03-17T07:15:05.985Z,1.60
2019-03-17T07:17:35.837Z,1.30
2019-03-17T07:20:05.979Z,1.30
2019-03-17T07:22:35.141Z,1.43
2019-03-17T07:25:05.058Z,1.47
2019-03-17T07:27:34.313Z,1.50
2019-03-17T07:30:03.681Z,1.50
2019-03-17T07:32:32.965Z,1.40
2019-03-17T07:35:02.177Z,1.50
2019-03-17T07:37:31.309Z,1.43
2019-03-17T07:40:00.497Z,1.50
2019-03-17T07:42:32.450Z,1.73
2019-03-17T07:45:00.876Z,1.63
2019-03-17T07:47:30.305Z,1.80
2019-03-17T07:49:59.802Z,1.40
2019-03-17T07:52:28.962Z,1.70
2019-03-17T07:54:58.268Z,1.40
2019-03-17T07:57:27.446Z,1.77
2019-03-17T07:59:56.601Z,1.73
2019-03-17T08:02:25.821Z,1.80
2019-03-17T08:04:54.978Z,1.73
2019-03-17T08:07:24.167Z,2.03
2019-03-17T08:09:53.589Z,1.60
2019-03-17T08:12:23.766Z,1.60
2019-03-17T08:14:53.144Z,2.17
2019-03-17T08:17:22.757Z,1.50
2019-03-17T08:19:52.873Z,2.10
2019-03-17T08:22:22.447Z,1.60
2019-03-17T08:24:52.522Z,1.77
2019-03-17T08:27:22.229Z,1.60
2019-03-17T08:29:51.606Z,1.53
2019-03-17T08:32:22.726Z,2.13
2019-03-17T08:34:51.950Z,1.70
2019-03-17T08:37:21.151Z,1.83
2019-03-17T08:39:51.271Z,2.10
2019-03-17T08:42:20.574Z,1.73
2019-03-17T08:44:50.698Z,1.83
2019-03-17T08:47:22.598Z,1.80
2019-03-17T08:49:52.065Z,1.50
2019-03-17T08:52:21.398Z,1.60
2019-03-17T08:54:50.601Z,1.50
2019-03-17T08:57:20.331Z,1.40
2019-03-17T08:59:49.493Z,1.30
2019-03-17T09:02:19.261Z,1.63
2019-03-17T09:04:48.867Z,1.20
2019-03-17T09:07:18.572Z,1.07
2019-03-17T09:09:47.771Z,1.13
2019-03-17T09:12:17.070Z,1.27
2019-03-17T09:14:46.638Z,1.00
2019-03-17T09:17:16.085Z,1.00
2019-03-17T09:19:45.244Z,1.20
2019-03-17T09:22:14.390Z,0.80
2019-03-17T09:24:43.688Z,0.90
2019-03-17T09:27:13.788Z,1.03
2019-03-17T09:29:42.970Z,0.90
2019-03-17T09:38:00.066Z,0.90
2019-03-17T09:40:48.510Z,1.23
2019-03-17T09:43:29.798Z,1.70
2019-03-17T09:46:10.906Z,1.17
2019-03-17T09:48:52.007Z,1.03
2019-03-17T09:51:32.865Z,1.60
2019-03-17T09:54:13.709Z,1.70
2019-03-17T09:56:54.835Z,1.40
2019-03-17T09:59:35.765Z,1.20
2019-03-17T10:02:16.618Z,1.30
2019-03-17T10:04:57.498Z,1.33
2019-03-17T10:07:38.455Z,1.30
2019-03-17T10:10:19.551Z,1.23
2019-03-17T10:13:00.618Z,1.00
2019-03-17T10:15:41.336Z,1.70
2019-03-17T10:18:23.157Z,1.70
2019-03-17T10:21:04.174Z,1.27
2019-03-17T10:23:45.475Z,1.10
2019-03-17T10:26:26.838Z,0.97
2019-03-17T10:29:08.479Z,1.20
2019-03-17T10:31:49.537Z,1.13
2019-03-17T10:34:30.328Z,1.00
2019-03-17T10:37:11.813Z,1.20
2019-03-17T10:39:52.474Z,0.83
2019-03-17T10:42:34.308Z,1.00
2019-03-17T10:45:16.452Z,1.17
2019-03-17T10:47:57.477Z,1.10
2019-03-17T10:51:06.737Z,1.00
2019-03-17T10:54:09.178Z,1.30
2019-03-17T10:56:45.082Z,1.10
2019-03-17T10:59:33.785Z,0.87
2019-03-17T11:02:22.097Z,0.77
2019-03-17T11:08:04.533Z,1.30
2019-03-17T11:10:52.795Z,1.27
2019-03-17T11:16:29.474Z,1.00
2019-03-17T11:19:17.912Z,1.00
2019-03-17T11:22:06.253Z,0.80
2019-03-17T11:24:55.073Z,0.70
2019-03-17T11:27:43.367Z,0.60
2019-03-17T11:30:31.705Z,1.00
2019-03-17T11:33:20.042Z,0.90
2019-03-17T11:36:08.705Z,0.80
2019-03-17T11:38:57.094Z,1.10
2019-03-17T11:41:45.450Z,0.60
2019-03-17T11:44:33.772Z,0.80
2019-03-17T11:47:22.155Z,0.87
2019-03-17T11:50:10.741Z,0.70
2019-03-17T11:52:51.809Z,1.00
2019-03-17T11:55:32.748Z,0.87
2019-03-17T11:58:13.643Z,0.90
2019-03-17T12:00:54.464Z,0.70
2019-03-17T12:03:35.714Z,0.80
2019-03-17T12:06:16.963Z,0.83
2019-03-17T12:08:57.746Z,1.00
2019-03-17T12:11:38.262Z,0.93
2019-03-17T12:14:19.434Z,0.70
2019-03-17T12:16:59.995Z,0.97
2019-03-17T12:19:41.314Z,0.40
2019-03-17T12:22:22.250Z,0.70
2019-03-17T12:25:03.613Z,0.60
2019-03-17T12:27:44.363Z,0.67
2019-03-17T12:30:25.349Z,0.57
2019-03-17T12:33:06.734Z,1.03
2019-03-17T12:35:47.971Z,0.50
2019-03-17T12:38:29.149Z,0.43
2019-03-17T12:41:10.033Z,0.57
2019-03-17T12:43:51.453Z,0.40
2019-03-17T12:46:32.190Z,0.30
2019-03-17T12:49:13.721Z,0.27
2019-03-17T12:51:54.960Z,0.30
2019-03-17T12:54:35.849Z,0.20
2019-03-17T12:57:17.213Z,0.30
2019-03-17T12:59:58.441Z,0.60
2019-03-17T13:02:39.210Z,0.27
2019-03-17T13:05:20.247Z,0.20
2019-03-17T13:08:00.973Z,0.40
2019-03-17T13:10:42.594Z,0.40
2019-03-17T13:13:11.828Z,0.30
2019-03-17T13:16:00.671Z,0.40
2019-03-17T13:18:30.705Z,0.40
2019-03-17T13:21:19.595Z,0.40
2019-03-17T13:24:07.917Z,0.40
2019-03-17T13:26:56.272Z,0.30
2019-03-17T13:29:45.022Z,0.30
2019-03-17T13:32:33.314Z,0.30
2019-03-17T13:38:17.123Z,0.50
2019-03-17T13:43:59.367Z,0.40
2019-03-17T13:46:47.754Z,0.50
2019-03-17T13:52:23.176Z,0.50
2019-03-17T13:55:04.426Z,0.53
2019-03-17T13:57:45.153Z,0.70
2019-03-17T14:00:25.801Z,0.30
2019-03-17T14:03:07.093Z,0.60
2019-03-17T14:05:48.574Z,0.37
2019-03-17T14:08:30.456Z,0.73
2019-03-17T14:11:11.783Z,0.50
2019-03-17T14:13:52.521Z,0.80
2019-03-17T14:16:33.826Z,0.60
2019-03-17T14:19:15.057Z,0.70
2019-03-17T14:21:55.801Z,0.40
2019-03-17T14:24:36.813Z,0.60
2019-03-17T14:27:17.406Z,0.90
2019-03-17T14:29:58.086Z,0.50
2019-03-17T14:32:39.566Z,0.90
2019-03-17T14:35:21.653Z,0.97
2019-03-17T14:38:02.729Z,0.50
2019-03-17T14:40:52.889Z,0.63
2019-03-17T14:43:27.062Z,1.20
2019-03-17T14:46:08.067Z,0.90
2019-03-17T14:48:48.498Z,0.90
2019-03-17T14:51:28.937Z,0.87
2019-03-17T14:54:09.383Z,0.70
2019-03-17T14:56:50.447Z,0.50
2019-03-17T14:59:31.144Z,0.80
2019-03-17T15:02:11.557Z,0.90
2019-03-17T15:04:52.235Z,0.90
2019-03-17T15:07:33.573Z,1.53
2019-03-17T15:10:14.275Z,1.10
2019-03-17T15:12:55.462Z,1.30
2019-03-17T15:15:36.809Z,1.33
2019-03-17T15:18:17.743Z,1.57
2019-03-17T15:20:59.071Z,1.77
2019-03-17T15:23:40.128Z,1.60
2019-03-17T15:26:21.776Z,1.90
2019-03-17T15:29:03.150Z,1.63
2019-03-17T15:31:43.885Z,1.60
2019-03-17T15:34:24.495Z,1.50
2019-03-17T15:37:05.232Z,1.50
2019-03-17T15:39:46.138Z,1.30
2019-03-17T15:42:29.069Z,1.30
2019-03-17T15:45:10.354Z,1.53
2019-03-17T15:47:40.047Z,1.40
2019-03-17T15:50:20.581Z,1.20
2019-03-17T15:53:01.550Z,1.20
2019-03-17T15:55:42.601Z,1.13
2019-03-17T15:58:23.682Z,1.00
2019-03-17T16:01:05.114Z,0.80
2019-03-17T16:06:44.691Z,1.30
2019-03-17T16:09:28.504Z,1.27
2019-03-17T16:12:09.665Z,0.80
2019-03-17T16:14:50.851Z,1.20
2019-03-17T16:17:32.324Z,0.70
2019-03-17T16:20:13.426Z,1.10
2019-03-17T16:22:54.076Z,0.70
2019-03-17T16:25:34.766Z,0.47
2019-03-17T16:28:15.340Z,0.80
2019-03-17T16:30:56.833Z,0.80
2019-03-17T16:33:38.584Z,0.97
2019-03-17T16:36:20.038Z,1.00
2019-03-17T16:39:01.216Z,0.90
2019-03-17T16:41:43.923Z,0.77
2019-03-17T16:44:25.390Z,0.87
2019-03-17T16:47:07.723Z,0.73
2019-03-17T16:49:48.399Z,0.60
2019-03-17T16:52:30.083Z,0.90
2019-03-17T16:55:11.639Z,0.40
2019-03-17T16:57:52.814Z,0.80
2019-03-17T17:00:34.332Z,1.13
2019-03-17T17:03:15.422Z,0.53
2019-03-17T17:05:56.597Z,1.10
2019-03-17T17:08:38.652Z,0.63
2019-03-17T17:11:20.564Z,0.93
2019-03-17T17:14:01.530Z,0.77
2019-03-17T17:16:42.381Z,0.50
2019-03-17T17:19:23.614Z,0.53
2019-03-17T17:22:04.432Z,0.80
2019-03-17T17:24:45.608Z,0.60
2019-03-17T17:27:26.802Z,0.93
2019-03-17T17:30:08.214Z,0.60
2019-03-17T17:32:49.151Z,0.50
2019-03-17T17:35:30.273Z,0.87
2019-03-17T17:38:12.434Z,1.03
2019-03-17T17:40:53.488Z,0.97
2019-03-17T17:43:34.166Z,1.00
2019-03-17T17:46:15.845Z,1.60
2019-03-17T17:48:57.041Z,1.10
2019-03-17T17:51:38.671Z,0.80
2019-03-17T17:54:20.604Z,0.70
2019-03-17T17:57:02.251Z,0.90
2019-03-17T17:59:44.128Z,0.87
2019-03-17T18:02:25.040Z,0.87
2019-03-17T18:05:05.919Z,0.70
2019-03-17T18:07:47.271Z,0.90
2019-03-17T18:10:27.719Z,0.97
2019-03-17T18:13:08.951Z,0.90
2019-03-17T18:15:50.493Z,1.10
2019-03-17T18:18:31.230Z,1.10
2019-03-17T18:21:12.477Z,0.90
2019-03-17T18:23:53.702Z,1.40
2019-03-17T18:26:34.202Z,1.87
2019-03-17T18:29:15.470Z,1.57
2019-03-17T18:31:56.260Z,1.27
2019-03-17T18:34:36.870Z,1.30
2019-03-17T18:37:17.868Z,1.30
2019-03-17T18:39:58.874Z,1.07
2019-03-17T18:42:39.592Z,1.50
2019-03-17T18:45:20.821Z,1.00
2019-03-17T18:48:02.198Z,1.73
2019-03-17T18:50:43.085Z,1.37
2019-03-17T18:53:25.162Z,1.93
2019-03-17T18:56:07.001Z,1.43
2019-03-17T18:58:48.214Z,4.53
2019-03-17T19:01:28.932Z,1.60
2019-03-17T19:04:09.706Z,1.20
2019-03-17T19:06:51.106Z,0.90
2019-03-17T19:09:33.090Z,1.30
2019-03-17T19:12:14.352Z,1.27
2019-03-17T19:14:56.338Z,1.13
2019-03-17T19:17:37.165Z,1.10
2019-03-17T19:20:18.062Z,1.07
2019-03-17T19:22:59.154Z,1.07
2019-03-17T19:25:39.800Z,1.00
2019-03-17T19:28:21.097Z,1.17
2019-03-17T19:31:01.671Z,1.10
2019-03-17T19:33:31.529Z,1.80
2019-03-17T19:36:20.309Z,1.37
2019-03-17T19:39:09.053Z,1.37
2019-03-17T19:41:57.397Z,1.30
2019-03-17T19:44:45.689Z,1.40
2019-03-17T19:53:23.121Z,1.40
2019-03-17T19:56:13.077Z,1.50
2019-03-17T19:59:01.698Z,1.37
2019-03-17T20:04:44.782Z,1.27
2019-03-17T20:07:33.139Z,1.30
2019-03-17T20:10:22.185Z,1.00
2019-03-17T20:13:12.172Z,0.97
2019-03-17T20:30:49.734Z,1.20
2019-03-17T20:33:38.402Z,1.20
2019-03-17T20:36:26.708Z,1.17
2019-03-17T20:39:14.982Z,1.30
2019-03-17T20:42:03.930Z,1.40
2019-03-17T20:47:46.022Z,1.17
2019-03-17T20:50:34.768Z,1.37
2019-03-17T20:53:16.194Z,1.17
2019-03-17T20:55:57.221Z,1.40
2019-03-17T20:58:39.211Z,1.10
2019-03-17T21:01:20.364Z,1.13
2019-03-17T21:04:01.043Z,1.60
2019-03-17T21:06:44.226Z,1.10
2019-03-17T21:09:45.268Z,1.27
2019-03-17T21:15:15.981Z,1.63
2019-03-17T21:17:57.420Z,1.90
2019-03-17T21:20:38.701Z,1.87
2019-03-17T21:23:19.727Z,1.53
2019-03-17T21:26:01.615Z,1.67
2019-03-17T21:28:43.902Z,2.20
2019-03-17T21:31:24.964Z,3.17
2019-03-17T21:34:05.558Z,2.73
2019-03-17T21:36:46.577Z,3.20
2019-03-17T21:39:27.066Z,4.97
2019-03-17T21:42:08.258Z,3.40
2019-03-17T21:44:49.618Z,2.80
2019-03-17T21:47:31.315Z,2.60
2019-03-17T21:50:12.095Z,2.17
2019-03-17T21:52:53.974Z,2.67
2019-03-17T21:55:34.993Z,3.00
2019-03-17T21:58:16.817Z,2.50
2019-03-17T22:03:28.066Z,2.17
2019-03-17T22:05:57.969Z,2.43
2019-03-17T22:08:27.466Z,2.47
2019-03-17T22:10:57.367Z,2.57
2019-03-17T22:13:26.713Z,2.20
2019-03-17T22:15:57.073Z,2.47
2019-03-17T22:18:26.767Z,2.03
2019-03-17T22:20:56.234Z,2.10
2019-03-17T22:23:25.411Z,2.20
2019-03-17T22:25:55.722Z,2.17
2019-03-17T22:28:25.138Z,2.03
2019-03-17T22:30:54.613Z,2.50
2019-03-17T22:33:23.852Z,4.20
2019-03-17T22:35:53.697Z,4.60
2019-03-17T22:38:23.005Z,4.83
2019-03-17T22:40:52.323Z,3.93
2019-03-17T22:43:21.579Z,3.57
2019-03-17T22:45:50.721Z,2.30
2019-03-17T22:48:20.282Z,1.80
2019-03-17T22:50:49.442Z,1.90
2019-03-17T22:53:18.860Z,1.70
2019-03-17T22:55:48.061Z,1.83
2019-03-17T22:58:17.566Z,1.57
2019-03-17T23:00:47.671Z,1.40
2019-03-17T23:03:17.209Z,1.30
2019-03-17T23:05:46.427Z,1.53
2019-03-17T23:08:15.920Z,1.40
2019-03-17T23:10:45.578Z,1.10
2019-03-17T23:13:14.814Z,1.40
2019-03-17T23:15:44.026Z,1.37
2019-03-17T23:18:13.629Z,1.47
2019-03-17T23:20:43.177Z,1.20
2019-03-17T23:23:12.333Z,1.57
2019-03-17T23:25:41.737Z,1.43
2019-03-17T23:28:11.003Z,1.50
2019-03-17T23:30:40.877Z,1.67
2019-03-17T23:33:10.055Z,1.27
2019-03-17T23:35:39.229Z,1.30
2019-03-17T23:38:08.376Z,1.60
2019-03-17T23:40:37.616Z,1.30
2019-03-17T23:43:06.923Z,1.63
2019-03-17T23:45:36.469Z,2.23
2019-03-17T23:48:05.985Z,1.80
2019-03-17T23:50:35.204Z,1.73
2019-03-17T23:53:04.690Z,1.47
2019-03-17T23:55:34.135Z,1.50
2019-03-17T23:58:03.409Z,1.50
